Time;durP1;ratioP1;P1;durP2;ratioP2;P2;SDS_P1;SDS_P2;PMS_P1;PMS_P2;Temp;Humidity;BMP_temperature;BMP_pressure;BME280_temperature;BME280_humidity;BME280_pressure;Samples;Min_cycle;Max_cycle;Signal;HPM_P1;HPM_P2
2021/01/02 00:06:00;;;;;;;30.25;16.48;;;;;;;0.33;100.00;99979.59;18461256;28;20047;-69
2021/01/02 00:15:06;;;;;;;29.65;15.32;;;;;;;0.39;100.00;99982.06;18440777;28;20066;-69
2021/01/02 00:24:31;;;;;;;34.45;17.42;;;;;;;0.45;100.00;99981.94;18448227;28;20127;-69
2021/01/02 00:34:16;;;;;;;30.58;15.60;;;;;;;0.35;100.00;99988.16;18418486;28;20071;-69
2021/01/02 00:43:17;;;;;;;31.17;15.93;;;;;;;0.32;100.00;99989.03;18444095;28;20706;-69
2021/01/02 00:52:43;;;;;;;31.13;16.25;;;;;;;0.27;100.00;99995.16;18479823;28;20047;-69
2021/01/02 01:02:11;;;;;;;32.30;16.80;;;;;;;0.24;100.00;99980.63;18467811;28;20458;-69
2021/01/02 01:11:15;;;;;;;33.50;16.13;;;;;;;0.22;100.00;99986.66;18440213;28;20065;-70
2021/01/02 01:20:17;;;;;;;43.25;19.73;;;;;;;0.35;100.00;99990.72;18465451;28;20046;-69
2021/01/02 01:29:26;;;;;;;49.95;20.77;;;;;;;0.49;100.00;100003.31;18441375;28;20043;-69
2021/01/02 01:38:28;;;;;;;51.80;22.60;;;;;;;0.60;100.00;99996.22;18441493;28;20973;-69
2021/01/02 01:47:37;;;;;;;43.60;18.20;;;;;;;0.55;100.00;100011.78;18433136;28;20075;-69
2021/01/02 01:56:43;;;;;;;43.13;21.35;;;;;;;0.62;100.00;100004.75;18441765;28;20074;-69
2021/01/02 02:05:49;;;;;;;45.58;20.50;;;;;;;0.63;100.00;100004.72;18438571;28;20142;-70
2021/01/02 02:14:59;;;;;;;46.55;20.80;;;;;;;0.72;100.00;100004.53;18439527;28;20126;-70
2021/01/02 02:24:01;;;;;;;47.80;19.95;;;;;;;0.70;100.00;100010.59;18445011;28;20414;-70
2021/01/02 02:33:08;;;;;;;42.38;19.40;;;;;;;0.74;100.00;100009.66;18453512;28;20051;-70
2021/01/02 02:42:09;;;;;;;38.78;18.00;;;;;;;0.69;100.00;100014.91;18417034;29;20407;-70
2021/01/02 02:51:14;;;;;;;42.20;18.98;;;;;;;0.75;100.00;100009.63;18450332;29;20043;-70
2021/01/02 03:00:17;;;;;;;41.25;17.20;;;;;;;0.71;100.00;100013.13;18443327;29;20609;-70
2021/01/02 03:09:18;;;;;;;51.97;19.85;;;;;;;0.73;100.00;100011.38;18413238;29;20083;-71
2021/01/02 03:18:19;;;;;;;54.47;20.80;;;;;;;0.78;100.00;100021.59;18397533;29;20078;-70
2021/01/02 03:27:21;;;;;;;54.00;21.63;;;;;;;0.84;100.00;100017.16;18367045;29;20428;-71
2021/01/02 03:36:23;;;;;;;;;;;;;;;0.77;100.00;100023.31;18403410;28;20064;-70
2021/01/02 03:45:24;;;;;;;55.75;23.38;;;;;;;0.83;100.00;100025.75;18401288;29;19951;-70
2021/01/02 03:54:25;;;;;;;63.28;24.73;;;;;;;0.94;100.00;100019.53;18393051;29;20055;-70
2021/01/02 04:03:26;;;;;;;69.05;25.85;;;;;;;0.91;100.00;100014.47;18384739;29;21637;-70
2021/01/02 04:12:26;;;;;;;62.50;25.23;;;;;;;0.85;100.00;100015.44;18399418;29;20111;-70
2021/01/02 04:21:27;;;;;;;65.65;25.90;;;;;;;0.93;100.00;100004.94;18394721;29;20083;-70
2021/01/02 04:30:28;;;;;;;73.68;26.38;;;;;;;1.01;100.00;100005.66;18382964;29;20498;-70
2021/01/02 04:39:29;;;;;;;68.65;25.60;;;;;;;0.83;100.00;99999.16;18392255;29;20492;-71
2021/01/02 04:48:30;;;;;;;65.57;26.65;;;;;;;0.90;100.00;99992.16;18390946;28;20079;-70
2021/01/02 04:57:34;;;;;;;70.57;26.90;;;;;;;0.91;100.00;99994.72;18387526;29;20048;-70
2021/01/02 05:06:36;;;;;;;72.53;27.52;;;;;;;1.05;100.00;100002.97;18377566;29;20063;-70
2021/01/02 05:15:37;;;;;;;73.30;27.98;;;;;;;1.04;100.00;100000.41;18367968;29;20497;-70
2021/01/02 05:24:37;;;;;;;70.90;27.90;;;;;;;1.06;100.00;100007.25;18359124;29;20044;-70
2021/01/02 05:33:38;;;;;;;73.97;28.38;;;;;;;0.97;100.00;100015.16;18425224;28;20063;-70
2021/01/02 05:42:42;;;;;;;78.57;29.83;;;;;;;0.98;100.00;100013.44;18509328;28;20051;-71
2021/01/02 05:51:47;;;;;;;78.28;29.50;;;;;;;1.08;100.00;100025.25;18513180;28;20083;-71
2021/01/02 06:00:48;;;;;;;70.55;27.25;;;;;;;1.00;100.00;100038.31;18522395;28;20055;-71
2021/01/02 06:09:50;;;;;;;82.03;31.00;;;;;;;1.07;100.00;100047.56;18525175;28;20554;-70
2021/01/02 06:18:51;;;;;;;78.25;29.38;;;;;;;1.04;100.00;100050.22;18524847;28;20038;-71
2021/01/02 06:27:52;;;;;;;82.40;29.83;;;;;;;1.07;100.00;100063.03;18525027;28;20575;-71
2021/01/02 06:36:55;;;;;;;78.03;29.00;;;;;;;1.16;100.00;100065.44;18523404;28;20054;-71
2021/01/02 06:45:58;;;;;;;77.15;28.83;;;;;;;1.04;100.00;100063.13;18522262;28;20765;-70
2021/01/02 06:55:22;;;;;;;71.40;25.92;;;;;;;1.00;100.00;100056.34;18523747;28;20070;-70
2021/01/02 07:04:34;;;;;;;75.13;29.10;;;;;;;1.01;100.00;100054.63;18517722;28;20688;-70
2021/01/02 07:13:35;;;;;;;73.13;26.92;;;;;;;0.96;100.00;100038.41;18525843;28;20043;-71
2021/01/02 07:22:36;;;;;;;68.82;27.50;;;;;;;0.98;100.00;100047.78;18534415;28;20411;-70
2021/01/02 07:31:37;;;;;;;72.55;26.85;;;;;;;0.99;100.00;100043.47;18523174;28;20503;-70
2021/01/02 07:40:39;;;;;;;73.55;27.38;;;;;;;0.91;100.00;100040.22;18523979;28;20050;-70
2021/01/02 07:49:39;;;;;;;74.50;27.85;;;;;;;0.98;100.00;100055.50;18524204;28;20066;-70
2021/01/02 07:58:40;;;;;;;75.47;29.02;;;;;;;1.09;100.00;100055.28;18523655;28;20043;-70
2021/01/02 08:07:54;;;;;;;75.55;29.05;;;;;;;1.12;100.00;100068.94;18521232;28;20057;-70
2021/01/02 08:17:07;;;;;;;74.20;29.65;;;;;;;1.14;100.00;100061.19;18522667;28;20157;-70
2021/01/02 08:26:08;;;;;;;75.00;28.37;;;;;;;1.17;100.00;100082.59;18519951;28;20058;-70
2021/01/02 08:35:38;;;;;;;70.57;27.52;;;;;;;1.25;100.00;100097.91;18524311;28;20044;-70
2021/01/02 08:44:46;;;;;;;81.43;30.17;;;;;;;1.27;100.00;100093.53;18521289;28;20459;-70
2021/01/02 08:53:48;;;;;;;72.22;29.00;;;;;;;1.29;100.00;100094.38;18520618;28;20385;-70
2021/01/02 09:02:52;;;;;;;79.32;28.33;;;;;;;1.41;100.00;100094.13;18517325;28;20051;-70
2021/01/02 09:11:54;;;;;;;73.82;29.10;;;;;;;1.36;100.00;100101.09;18513645;28;20419;-70
2021/01/02 09:20:57;;;;;;;64.65;26.27;;;;;;;1.39;100.00;100107.91;18515466;28;20696;-70
2021/01/02 09:29:57;;;;;;;68.53;26.45;;;;;;;1.47;100.00;100109.47;18517066;28;20054;-70
2021/01/02 09:38:59;;;;;;;70.38;27.33;;;;;;;1.57;100.00;100105.78;18513064;28;20102;-70
2021/01/02 09:48:00;;;;;;;66.63;27.10;;;;;;;1.56;100.00;100091.19;18514669;28;20070;-70
2021/01/02 09:57:01;;;;;;;57.97;24.92;;;;;;;1.72;100.00;100096.84;18510856;28;20051;-70
2021/01/02 10:06:03;;;;;;;59.78;24.95;;;;;;;1.78;100.00;100093.28;18515284;28;20098;-71
2021/01/02 10:15:05;;;;;;;57.47;24.57;;;;;;;1.84;100.00;100087.97;18516680;28;20086;-70
2021/01/02 10:24:07;;;;;;;53.60;23.67;;;;;;;1.99;100.00;100093.59;18515988;28;20500;-70
2021/01/02 10:33:09;;;;;;;48.50;23.13;;;;;;;2.19;100.00;100090.53;18513212;28;20066;-70
2021/01/02 10:42:11;;;;;;;45.97;20.50;;;;;;;2.29;100.00;100084.25;18519862;28;20042;-69
2021/01/02 10:51:17;;;;;;;46.47;20.93;;;;;;;2.33;100.00;100078.13;18528902;28;20081;-70
2021/01/02 11:00:19;;;;;;;37.85;18.02;;;;;;;2.50;97.93;100063.03;18525972;28;20043;-70
2021/01/02 11:09:22;;;;;;;40.28;17.88;;;;;;;2.75;94.88;100062.34;18524786;28;20050;-70
2021/01/02 11:18:23;;;;;;;32.25;17.02;;;;;;;2.78;93.53;100055.38;18525317;28;20089;-70
2021/01/02 11:27:24;;;;;;;33.03;15.73;;;;;;;2.70;94.09;100043.53;18540142;28;20507;-72
2021/01/02 11:36:26;;;;;;;31.40;15.73;;;;;;;3.00;91.43;100029.75;18528231;28;20137;-71
2021/01/02 11:45:26;;;;;;;31.98;14.30;;;;;;;2.90;87.60;100018.81;18522389;28;20062;-71
2021/01/02 11:54:30;;;;;;;23.83;12.57;;;;;;;3.03;87.79;100003.81;18521343;28;20419;-70
2021/01/02 12:03:32;;;;;;;20.70;11.13;;;;;;;3.19;84.83;99988.69;18524786;28;20046;-70
2021/01/02 12:12:33;;;;;;;17.67;8.80;;;;;;;3.23;82.69;99985.09;18524382;28;20522;-70
2021/01/02 12:21:34;;;;;;;14.07;7.53;;;;;;;3.38;78.35;99984.63;18523052;28;20051;-70
2021/01/02 12:30:36;;;;;;;17.03;8.67;;;;;;;3.19;80.09;99973.16;18522397;28;20081;-69
2021/01/02 12:39:38;;;;;;;11.25;6.35;;;;;;;3.15;74.98;99969.81;18520325;28;20046;-69
2021/01/02 12:48:40;;;;;;;14.50;7.33;;;;;;;3.15;75.30;99966.41;18523085;28;20046;-70
2021/01/02 12:57:41;;;;;;;14.68;7.00;;;;;;;3.19;77.29;99968.84;18517778;28;20568;-71
2021/01/02 13:06:47;;;;;;;12.85;6.75;;;;;;;3.17;76.68;99959.44;18517107;28;20042;-71
2021/01/02 13:15:48;;;;;;;10.07;5.15;;;;;;;3.15;75.08;99954.28;18516941;28;20054;-71
2021/01/02 13:24:49;;;;;;;10.38;4.85;;;;;;;3.07;74.23;99950.28;18514608;28;20067;-71
2021/01/02 13:33:50;;;;;;;9.30;4.45;;;;;;;3.00;74.24;99949.59;18518916;28;20122;-70
2021/01/02 13:42:52;;;;;;;7.47;3.78;;;;;;;2.94;73.29;99952.41;18519326;28;20042;-70
2021/01/02 13:51:53;;;;;;;7.50;3.60;;;;;;;3.07;72.03;99955.44;18516749;28;20482;-70
2021/01/02 14:00:55;;;;;;;9.80;4.55;;;;;;;2.97;73.36;99947.97;18518311;28;20640;-70
2021/01/02 14:09:56;;;;;;;11.65;4.57;;;;;;;2.82;72.52;99937.25;18519087;28;20088;-69
2021/01/02 14:18:56;;;;;;;15.48;7.05;;;;;;;2.89;72.77;99943.94;18522785;28;20051;-70
2021/01/02 14:27:59;;;;;;;10.63;4.13;;;;;;;2.72;71.80;99948.75;18530905;28;20050;-71
2021/01/02 14:37:10;;;;;;;10.27;5.20;;;;;;;2.77;71.90;99944.28;18527743;28;20061;-71
2021/01/02 14:46:11;;;;;;;11.77;5.55;;;;;;;2.70;73.14;99959.13;18510493;28;20046;-70
2021/01/02 14:55:12;;;;;;;10.05;5.82;;;;;;;2.66;73.68;99961.84;18526416;28;20090;-70
2021/01/02 15:04:14;;;;;;;10.32;5.22;;;;;;;2.61;74.42;99971.47;18526176;28;20051;-70
2021/01/02 15:13:15;;;;;;;10.25;5.20;;;;;;;2.54;75.09;99958.72;18528656;28;20439;-69
2021/01/02 15:22:16;;;;;;;11.13;5.82;;;;;;;2.52;75.88;99965.69;18528400;28;20078;-69
2021/01/02 15:31:28;;;;;;;11.55;5.32;;;;;;;2.47;75.48;99957.22;18526028;28;20075;-70
2021/01/02 15:40:28;;;;;;;11.75;5.80;;;;;;;2.44;75.49;99961.59;18527702;28;20054;-69
2021/01/02 15:49:29;;;;;;;10.43;4.78;;;;;;;2.38;75.50;99959.22;18527602;28;20079;-70
2021/01/02 15:58:30;;;;;;;10.70;4.95;;;;;;;2.26;76.51;99955.22;18525456;28;20458;-70
2021/01/02 16:07:34;;;;;;;12.00;6.00;;;;;;;2.36;75.60;99954.09;18524289;28;20047;-69
2021/01/02 16:16:37;;;;;;;13.15;6.57;;;;;;;2.39;76.15;99954.00;18522813;28;20105;-70
2021/01/02 16:25:38;;;;;;;15.10;6.17;;;;;;;2.24;76.43;99946.66;18521550;28;20514;-70
2021/01/02 16:34:41;;;;;;;11.82;5.97;;;;;;;2.34;75.37;99939.50;18519897;28;20050;-71
2021/01/02 16:43:42;;;;;;;14.90;6.60;;;;;;;2.33;75.21;99941.28;18519971;28;20043;-70
2021/01/02 16:52:43;;;;;;;10.65;4.95;;;;;;;2.24;74.84;99936.34;18518651;28;20101;-70
2021/01/02 17:01:44;;;;;;;11.60;5.25;;;;;;;2.25;74.52;99932.88;18517876;28;20071;-70
2021/01/02 17:10:45;;;;;;;10.60;5.45;;;;;;;2.23;75.02;99926.94;18518296;28;20161;-70
2021/01/02 17:19:49;;;;;;;13.30;6.72;;;;;;;2.27;75.03;99928.53;18516009;28;20133;-71
2021/01/02 17:28:51;;;;;;;14.77;7.00;;;;;;;2.11;74.95;99927.25;18516274;28;20038;-71
2021/01/02 17:37:52;;;;;;;17.65;8.35;;;;;;;2.29;75.00;99924.16;18502590;28;20065;-71
2021/01/02 17:46:56;;;;;;;26.42;14.52;;;;;;;2.13;76.35;99930.66;18515083;28;20050;-71
2021/01/02 17:55:56;;;;;;;18.90;8.80;;;;;;;2.23;75.51;99928.66;18524939;28;20319;-71
2021/01/02 18:04:58;;;;;;;11.95;6.43;;;;;;;2.10;75.65;99915.22;18529628;28;20426;-71
2021/01/02 18:14:00;;;;;;;11.80;6.55;;;;;;;2.07;76.29;99920.50;18529936;28;20047;-71
2021/01/02 18:23:01;;;;;;;16.63;7.65;;;;;;;2.15;76.28;99918.53;18525297;28;20070;-71
2021/01/02 18:32:03;;;;;;;10.15;5.70;;;;;;;2.08;76.69;99927.34;18527397;28;20533;-71
2021/01/02 18:41:04;;;;;;;21.42;10.23;;;;;;;2.08;77.19;99932.50;18526213;28;20075;-71
2021/01/02 18:50:07;;;;;;;13.63;7.00;;;;;;;2.09;76.08;99927.28;18516719;28;20047;-71
2021/01/02 18:59:08;;;;;;;11.60;6.40;;;;;;;2.05;76.29;99928.28;18526452;28;20042;-71
2021/01/02 19:08:09;;;;;;;12.52;8.13;;;;;;;2.21;75.95;99933.00;18526822;28;20385;-70
2021/01/02 19:17:13;;;;;;;12.88;6.85;;;;;;;2.18;75.99;99944.28;18525816;28;20380;-70
2021/01/02 19:26:22;;;;;;;11.45;5.82;;;;;;;2.27;74.77;99943.19;18524925;28;20047;-71
2021/01/02 19:35:23;;;;;;;14.00;6.25;;;;;;;2.15;73.69;99952.09;18524996;28;20058;-71
2021/01/02 19:44:28;;;;;;;8.23;4.13;;;;;;;2.13;72.56;99959.88;18525047;28;20046;-71
2021/01/02 19:53:29;;;;;;;7.95;3.95;;;;;;;2.19;71.78;99958.84;18522804;28;20071;-71
2021/01/02 20:02:29;;;;;;;6.30;3.40;;;;;;;2.15;70.69;99955.53;18522128;28;20058;-71
2021/01/02 20:11:30;;;;;;;7.25;3.10;;;;;;;2.13;70.96;99935.81;18523890;28;20062;-70
2021/01/02 20:20:31;;;;;;;6.68;3.35;;;;;;;2.18;70.48;99926.22;18520561;28;20400;-70
2021/01/02 20:29:32;;;;;;;8.15;4.50;;;;;;;2.12;71.61;99923.78;18521225;28;20054;-71
2021/01/02 20:38:33;;;;;;;9.82;4.63;;;;;;;2.00;72.21;99927.53;18515277;28;20054;-71
2021/01/02 20:47:36;;;;;;;7.50;3.55;;;;;;;1.95;72.75;99919.09;18514132;28;20499;-71
2021/01/02 20:56:40;;;;;;;7.63;4.25;;;;;;;1.92;73.33;99923.50;18513900;28;20097;-71
2021/01/02 21:05:41;;;;;;;14.48;6.30;;;;;;;1.94;72.34;99912.22;18513981;28;20073;-71
2021/01/02 21:14:42;;;;;;;7.78;4.05;;;;;;;1.95;71.05;99915.66;18517580;28;20043;-71
2021/01/02 21:23:43;;;;;;;7.82;4.10;;;;;;;2.04;71.21;99911.09;18515518;28;20085;-71
2021/01/02 21:32:44;;;;;;;7.38;4.30;;;;;;;1.82;73.35;99909.13;18513239;28;20051;-71
2021/01/02 21:41:48;;;;;;;6.97;3.83;;;;;;;1.73;73.08;99896.50;18515682;28;20055;-71
2021/01/02 21:50:49;;;;;;;12.18;5.10;;;;;;;1.93;72.97;99901.97;18515079;28;20467;-70
2021/01/02 21:59:50;;;;;;;9.38;5.68;;;;;;;1.84;72.96;99903.03;18517219;28;20047;-71
2021/01/02 22:08:51;;;;;;;13.15;5.53;;;;;;;1.79;73.03;99902.31;18508893;28;20050;-71
2021/01/02 22:17:53;;;;;;;10.43;5.53;;;;;;;1.73;73.42;99904.22;18489194;28;20089;-71
2021/01/02 22:26:57;;;;;;;13.30;5.97;;;;;;;1.77;73.64;99905.84;18507955;28;20050;-70
2021/01/02 22:35:58;;;;;;;7.22;3.60;;;;;;;1.77;72.95;99905.84;18505791;28;20137;-70
2021/01/02 22:45:00;;;;;;;6.18;2.92;;;;;;;1.79;72.91;99898.88;18519266;28;20042;-71
2021/01/02 22:54:02;;;;;;;6.75;3.45;;;;;;;1.79;73.21;99889.41;18521656;28;20546;-70
2021/01/02 23:03:03;;;;;;;6.05;2.80;;;;;;;1.83;72.99;99864.41;18517503;28;20541;-70
2021/01/02 23:12:04;;;;;;;5.78;2.88;;;;;;;1.85;72.80;99870.34;18513088;28;20070;-70
2021/01/02 23:21:05;;;;;;;6.15;3.03;;;;;;;1.65;73.60;99864.00;18517276;28;20074;-70
2021/01/02 23:30:08;;;;;;;4.82;2.30;;;;;;;1.56;75.16;99864.25;18518374;28;20079;-69
2021/01/02 23:39:09;;;;;;;7.30;3.63;;;;;;;1.65;75.90;99870.88;18519655;28;20063;-70
2021/01/02 23:48:10;;;;;;;6.85;3.47;;;;;;;1.59;75.27;99864.16;18517899;28;20078;-70
2021/01/02 23:57:12;;;;;;;6.75;3.42;;;;;;;1.57;76.11;99859.94;18517927;28;20546;-70
